Time,TemperatureF,DewpointF,PressureIn,WindDirection,WindDirectionDegrees,WindSpeedMPH,WindSpeedGustMPH,Humidity,HourlyPrecipIn,Conditions,Clouds,dailyrainin,SoftwareType,DateUTC
2013-01-18 00:04:00,29.8,27.8,30.31,SW,227,0.0,0.0,92,0.00,,SKC,0.00,VWS V13.01,2013-01-18 06:04:00,
2013-01-18 00:09:00,29.8,27.8,30.30,SW,227,0.0,0.0,92,0.00,,SKC,0.00,VWS V13.01,2013-01-18 06:09:00,
2013-01-18 00:14:00,29.9,27.9,30.30,SW,227,0.0,0.0,92,0.00,,SKC,0.00,VWS V13.01,2013-01-18 06:14:00,
2013-01-18 00:19:00,29.9,27.9,30.30,SW,227,0.0,0.0,92,0.00,,SKC,0.00,VWS V13.01,2013-01-18 06:19:00,
2013-01-18 00:24:00,29.9,27.9,30.30,SW,227,0.0,0.0,92,0.00,,SKC,0.00,VWS V13.01,2013-01-18 06:24:00,
2013-01-18 00:29:00,29.9,27.9,30.30,SW,227,0.0,0.0,92,0.00,,SKC,0.00,VWS V13.01,2013-01-18 06:29:00,
2013-01-18 00:35:00,29.9,27.9,30.29,SW,227,0.0,0.0,92,0.00,,SKC,0.00,VWS V13.01,2013-01-18 06:35:00,
2013-01-18 00:40:00,29.8,27.8,30.29,SW,227,0.0,0.0,92,0.00,,SKC,0.00,VWS V13.01,2013-01-18 06:40:00,
2013-01-18 00:45:00,29.8,27.8,30.29,SW,227,0.0,0.0,92,0.00,,SKC,0.00,VWS V13.01,2013-01-18 06:45:00,
2013-01-18 00:51:00,29.7,27.7,30.29,SW,227,0.0,0.0,92,0.00,,SKC,0.00,VWS V13.01,2013-01-18 06:51:00,
2013-01-18 00:56:00,29.7,27.7,30.28,SW,227,0.0,0.0,92,0.00,,SKC,0.00,VWS V13.01,2013-01-18 06:56:00,
2013-01-18 01:01:00,29.7,27.7,30.28,SW,227,0.0,0.0,92,0.00,,SKC,0.00,VWS V13.01,2013-01-18 07:01:00,
2013-01-18 01:06:00,29.6,27.6,30.28,SW,227,0.0,0.0,92,0.00,,SKC,0.00,VWS V13.01,2013-01-18 07:06:00,
2013-01-18 01:11:00,29.6,27.6,30.28,SW,227,0.0,0.0,92,0.00,,SKC,0.00,VWS V13.01,2013-01-18 07:11:00,
2013-01-18 01:17:00,29.5,27.5,30.28,SW,227,0.0,0.0,92,0.00,,SKC,0.00,VWS V13.01,2013-01-18 07:17:00,
2013-01-18 01:22:00,29.4,27.4,30.28,SW,227,0.0,0.0,92,0.00,,SKC,0.00,VWS V13.01,2013-01-18 07:22:00,
2013-01-18 01:27:00,29.4,27.4,30.28,SW,227,0.0,0.0,92,0.00,,SKC,0.00,VWS V13.01,2013-01-18 07:27:00,
2013-01-18 01:32:00,29.4,27.4,30.27,SW,227,0.0,0.0,92,0.00,,SKC,0.00,VWS V13.01,2013-01-18 07:32:00,
2013-01-18 01:37:00,29.4,27.4,30.27,SW,227,0.0,0.0,92,0.00,,SKC,0.00,VWS V13.01,2013-01-18 07:37:00,
2013-01-18 01:42:00,29.4,27.4,30.27,SW,227,0.0,0.0,92,0.00,,SKC,0.00,VWS V13.01,2013-01-18 07:42:00,
2013-01-18 01:47:00,29.4,27.4,30.27,SW,227,0.0,0.0,92,0.00,,SKC,0.00,VWS V13.01,2013-01-18 07:47:00,
2013-01-18 01:52:00,29.4,27.4,30.27,SW,227,0.0,0.0,92,0.00,,SKC,0.00,VWS V13.01,2013-01-18 07:52:00,
2013-01-18 01:57:00,29.5,27.5,30.26,SW,227,0.0,0.0,92,0.00,,SKC,0.00,VWS V13.01,2013-01-18 07:57:00,
2013-01-18 02:02:00,29.4,27.1,30.26,SW,227,0.0,0.0,91,0.00,,SKC,0.00,VWS V13.01,2013-01-18 08:02:00,
2013-01-18 02:07:00,29.3,27.0,30.26,SW,227,0.0,0.0,91,0.00,,SKC,0.00,VWS V13.01,2013-01-18 08:07:00,
2013-01-18 02:12:00,29.3,27.0,30.26,SW,227,0.0,0.0,91,0.00,,SKC,0.00,VWS V13.01,2013-01-18 08:12:00,
2013-01-18 02:17:00,29.2,26.9,30.26,SW,227,0.0,0.0,91,0.00,,SKC,0.00,VWS V13.01,2013-01-18 08:17:00,
2013-01-18 02:22:00,29.2,26.9,30.26,SW,227,0.0,0.0,91,0.00,,SKC,0.00,VWS V13.01,2013-01-18 08:22:00,
2013-01-18 02:27:00,29.2,26.9,30.25,SW,227,0.0,0.0,91,0.00,,SKC,0.00,VWS V13.01,2013-01-18 08:27:00,
2013-01-18 02:32:00,29.0,26.7,30.25,SW,227,0.0,0.0,91,0.00,,SKC,0.00,VWS V13.01,2013-01-18 08:32:00,
2013-01-18 02:37:00,29.0,26.7,30.25,SW,227,0.0,0.0,91,0.00,,SKC,0.00,VWS V13.01,2013-01-18 08:37:00,
2013-01-18 02:42:00,29.0,26.7,30.24,SW,227,0.0,0.0,91,0.00,,SKC,0.00,VWS V13.01,2013-01-18 08:42:00,
2013-01-18 02:47:00,29.0,26.7,30.24,SW,227,0.0,0.0,91,0.00,,SKC,0.00,VWS V13.01,2013-01-18 08:47:00,
2013-01-18 02:52:00,29.2,26.9,30.24,SW,227,1.0,2.0,91,0.00,,SKC,0.00,VWS V13.01,2013-01-18 08:52:00,
2013-01-18 02:57:00,29.4,27.1,30.24,SW,227,0.0,2.0,91,0.00,,SKC,0.00,VWS V13.01,2013-01-18 08:57:00,
2013-01-18 03:02:00,29.6,27.6,30.23,SW,227,0.0,2.0,92,0.00,,SKC,0.00,VWS V13.01,2013-01-18 09:02:00,
2013-01-18 03:07:00,29.8,27.5,30.23,SW,227,0.0,2.0,91,0.00,,SKC,0.00,VWS V13.01,2013-01-18 09:07:00,
2013-01-18 03:13:00,30.0,27.7,30.22,SW,227,0.0,1.0,91,0.00,,SKC,0.00,VWS V13.01,2013-01-18 09:13:00,
2013-01-18 03:18:00,30.1,27.8,30.22,SW,227,0.0,1.0,91,0.00,,SKC,0.00,VWS V13.01,2013-01-18 09:18:00,
2013-01-18 03:23:00,30.2,27.9,30.22,SW,227,0.0,1.0,91,0.00,,SKC,0.00,VWS V13.01,2013-01-18 09:23:00,
2013-01-18 03:28:00,30.3,28.0,30.21,SW,227,0.0,1.0,91,0.00,,SKC,0.00,VWS V13.01,2013-01-18 09:28:00,
2013-01-18 03:33:00,30.3,28.0,30.21,SW,227,0.0,0.0,91,0.00,,SKC,0.00,VWS V13.01,2013-01-18 09:33:00,
2013-01-18 03:39:00,30.3,27.7,30.21,SW,227,1.0,2.0,90,0.00,,SKC,0.00,VWS V13.01,2013-01-18 09:39:00,
2013-01-18 03:44:00,30.2,27.6,30.21,SW,227,1.0,2.0,90,0.00,,SKC,0.00,VWS V13.01,2013-01-18 09:44:00,
2013-01-18 03:49:00,30.3,27.7,30.20,SW,227,1.0,2.0,90,0.00,,SKC,0.00,VWS V13.01,2013-01-18 09:49:00,
2013-01-18 03:54:00,30.3,27.7,30.20,SW,227,0.0,1.0,90,0.00,,SKC,0.00,VWS V13.01,2013-01-18 09:54:00,
2013-01-18 03:59:00,30.4,27.8,30.20,SW,227,2.0,2.0,90,0.00,,SKC,0.00,VWS V13.01,2013-01-18 09:59:00,
2013-01-18 04:04:00,30.5,27.9,30.19,SW,227,0.0,3.0,90,0.00,,SKC,0.00,VWS V13.01,2013-01-18 10:04:00,
2013-01-18 04:09:00,30.5,27.6,30.19,SW,227,0.0,0.0,89,0.00,,SKC,0.00,VWS V13.01,2013-01-18 10:09:00,
2013-01-18 04:14:00,30.6,27.8,30.19,SW,227,0.0,0.0,89,0.00,,SKC,0.00,VWS V13.01,2013-01-18 10:14:00,
2013-01-18 04:19:00,30.6,27.8,30.19,SW,227,0.0,0.0,89,0.00,,SKC,0.00,VWS V13.01,2013-01-18 10:19:00,
2013-01-18 04:25:00,30.7,27.9,30.18,SW,227,0.0,0.0,89,0.00,,SKC,0.00,VWS V13.01,2013-01-18 10:25:00,
2013-01-18 04:30:00,30.8,28.0,30.18,SW,227,0.0,0.0,89,0.00,,SKC,0.00,VWS V13.01,2013-01-18 10:30:00,
2013-01-18 04:35:00,30.9,28.0,30.17,SW,227,1.0,1.0,89,0.00,,SKC,0.00,VWS V13.01,2013-01-18 10:35:00,
2013-01-18 04:41:00,31.2,28.1,30.17,SW,227,0.0,0.0,88,0.00,,SKC,0.00,VWS V13.01,2013-01-18 10:41:00,
2013-01-18 04:46:00,31.4,28.3,30.17,SW,227,0.0,0.0,88,0.00,,SKC,0.00,VWS V13.01,2013-01-18 10:46:00,
2013-01-18 04:51:00,31.5,28.4,30.17,SW,227,0.0,0.0,88,0.00,,SKC,0.00,VWS V13.01,2013-01-18 10:51:00,
2013-01-18 04:56:00,31.7,28.3,30.17,SW,227,0.0,0.0,87,0.00,,SKC,0.00,VWS V13.01,2013-01-18 10:56:00,
2013-01-18 05:02:00,32.1,28.7,30.16,SW,227,2.0,2.0,87,0.00,,SKC,0.00,VWS V13.01,2013-01-18 11:02:00,
2013-01-18 05:07:00,32.6,28.9,30.16,SW,230,2.0,6.0,86,0.00,,SKC,0.00,VWS V13.01,2013-01-18 11:07:00,
2013-01-18 05:12:00,33.3,29.3,30.16,SW,230,0.0,5.0,85,0.00,,SKC,0.00,VWS V13.01,2013-01-18 11:12:00,
2013-01-18 05:17:00,33.6,29.0,30.16,SW,230,0.0,0.0,83,0.00,,SKC,0.00,VWS V13.01,2013-01-18 11:17:00,
2013-01-18 05:22:00,33.5,28.6,30.16,SW,230,0.0,0.0,82,0.00,,SKC,0.00,VWS V13.01,2013-01-18 11:22:00,
2013-01-18 05:27:00,33.5,28.6,30.15,SW,230,0.0,0.0,82,0.00,,SKC,0.00,VWS V13.01,2013-01-18 11:27:00,
2013-01-18 05:32:00,33.4,28.5,30.15,SW,230,0.0,0.0,82,0.00,,SKC,0.00,VWS V13.01,2013-01-18 11:32:00,
2013-01-18 05:37:00,33.4,28.2,30.15,SW,230,0.0,0.0,81,0.00,,SKC,0.00,VWS V13.01,2013-01-18 11:37:00,
2013-01-18 05:42:00,33.3,28.1,30.15,SW,230,0.0,0.0,81,0.00,,SKC,0.00,VWS V13.01,2013-01-18 11:42:00,
2013-01-18 05:47:00,33.3,28.1,30.15,SW,230,0.0,0.0,81,0.00,,SKC,0.00,VWS V13.01,2013-01-18 11:47:00,
2013-01-18 05:52:00,33.2,28.0,30.15,SW,230,0.0,0.0,81,0.00,,SKC,0.00,VWS V13.01,2013-01-18 11:52:00,
2013-01-18 05:57:00,33.0,27.8,30.14,SW,230,0.0,0.0,81,0.00,,SKC,0.00,VWS V13.01,2013-01-18 11:57:00,
2013-01-18 06:02:00,32.9,27.7,30.14,SW,230,0.0,0.0,81,0.00,,SKC,0.00,VWS V13.01,2013-01-18 12:02:00,
2013-01-18 06:07:00,32.9,28.0,30.13,SW,230,0.0,0.0,82,0.00,,SKC,0.00,VWS V13.01,2013-01-18 12:07:00,
2013-01-18 06:12:00,32.9,27.7,30.13,SW,230,0.0,1.0,81,0.00,,SKC,0.00,VWS V13.01,2013-01-18 12:12:00,
2013-01-18 06:18:00,32.9,27.7,30.12,SW,230,0.0,0.0,81,0.00,,SKC,0.00,VWS V13.01,2013-01-18 12:18:00,
2013-01-18 06:23:00,33.0,28.1,30.11,SSW,206,0.0,0.0,82,0.00,,SKC,0.00,VWS V13.01,2013-01-18 12:23:00,
2013-01-18 06:28:00,33.4,28.5,30.11,SSW,209,6.0,8.0,82,0.00,,SKC,0.00,VWS V13.01,2013-01-18 12:28:00,
2013-01-18 06:33:00,34.0,28.8,30.11,SW,223,1.0,2.0,81,0.00,,SKC,0.00,VWS V13.01,2013-01-18 12:33:00,
2013-01-18 06:38:00,34.2,28.7,30.11,SW,223,2.0,3.0,80,0.00,,SKC,0.00,VWS V13.01,2013-01-18 12:38:00,
2013-01-18 06:43:00,34.6,29.1,30.11,SW,219,1.0,3.0,80,0.00,,SKC,0.00,VWS V13.01,2013-01-18 12:43:00,
2013-01-18 06:48:00,34.8,29.3,30.10,SW,218,5.0,7.0,80,0.00,,SKC,0.00,VWS V13.01,2013-01-18 12:48:00,
2013-01-18 06:53:00,35.2,29.4,30.10,SW,228,6.0,7.0,79,0.00,,SKC,0.00,VWS V13.01,2013-01-18 12:53:00,
2013-01-18 06:58:00,35.4,29.5,30.09,SW,232,4.0,8.0,79,0.00,,SKC,0.00,VWS V13.01,2013-01-18 12:58:00,
2013-01-18 07:03:00,35.6,29.4,30.09,SW,235,0.0,2.0,78,0.00,,SKC,0.00,VWS V13.01,2013-01-18 13:03:00,
2013-01-18 07:08:00,35.6,29.4,30.09,West,262,1.0,6.0,78,0.00,,SKC,0.00,VWS V13.01,2013-01-18 13:08:00,
2013-01-18 07:13:00,35.7,29.5,30.09,SSW,200,4.0,8.0,78,0.00,,SKC,0.00,VWS V13.01,2013-01-18 13:13:00,
2013-01-18 07:18:00,35.9,29.7,30.08,SW,215,1.0,6.0,78,0.00,,SKC,0.00,VWS V13.01,2013-01-18 13:18:00,
2013-01-18 07:23:00,35.9,29.4,30.08,WSW,238,2.0,6.0,77,0.00,,SKC,0.00,VWS V13.01,2013-01-18 13:23:00,
2013-01-18 07:28:00,35.9,29.7,30.08,WSW,254,4.0,6.0,78,0.00,,SKC,0.00,VWS V13.01,2013-01-18 13:28:00,
2013-01-18 07:33:00,35.9,29.4,30.08,SSW,209,2.0,7.0,77,0.00,,SKC,0.00,VWS V13.01,2013-01-18 13:33:00,
2013-01-18 07:38:00,36.0,29.5,30.08,WSW,237,10.0,10.0,77,0.00,,SKC,0.00,VWS V13.01,2013-01-18 13:38:00,
2013-01-18 07:43:00,36.2,29.7,30.09,WSW,251,11.0,11.0,77,0.00,,SKC,0.00,VWS V13.01,2013-01-18 13:43:00,
2013-01-18 07:48:00,36.5,29.7,30.09,SW,232,6.0,12.0,76,0.00,,SKC,0.00,VWS V13.01,2013-01-18 13:48:00,
2013-01-18 07:53:00,36.6,29.8,30.09,SW,216,7.0,9.0,76,0.00,,SKC,0.00,VWS V13.01,2013-01-18 13:53:00,
2013-01-18 07:58:00,36.6,29.8,30.09,SSW,207,1.0,5.0,76,0.00,,SKC,0.00,VWS V13.01,2013-01-18 13:58:00,
2013-01-18 08:03:00,36.4,29.6,30.08,SW,222,3.0,4.0,76,0.00,,SKC,0.00,VWS V13.01,2013-01-18 14:03:00,
2013-01-18 08:08:00,36.3,29.8,30.08,SW,214,1.0,2.0,77,0.00,,SKC,0.00,VWS V13.01,2013-01-18 14:08:00,
2013-01-18 08:13:00,36.4,29.9,30.08,SSW,193,2.0,6.0,77,0.00,,SKC,0.00,VWS V13.01,2013-01-18 14:13:00,
2013-01-18 08:18:00,36.6,30.1,30.08,SSW,206,3.0,9.0,77,0.00,,SKC,0.00,VWS V13.01,2013-01-18 14:18:00,
2013-01-18 08:23:00,37.0,30.5,30.08,South,187,0.0,4.0,77,0.00,,SKC,0.00,VWS V13.01,2013-01-18 14:23:00,
2013-01-18 08:28:00,37.3,30.8,30.08,SW,215,3.0,16.0,77,0.00,,SKC,0.00,VWS V13.01,2013-01-18 14:28:00,
2013-01-18 08:33:00,38.0,31.1,30.08,SW,224,2.0,4.0,76,0.00,,SKC,0.00,VWS V13.01,2013-01-18 14:33:00,
2013-01-18 08:38:00,38.3,31.1,30.08,SSW,201,4.0,7.0,75,0.00,,SKC,0.00,VWS V13.01,2013-01-18 14:38:00,
2013-01-18 08:43:00,38.5,31.3,30.08,WSW,247,2.0,8.0,75,0.00,,SKC,0.00,VWS V13.01,2013-01-18 14:43:00,
2013-01-18 08:48:00,38.8,31.2,30.08,SW,214,1.0,8.0,74,0.00,,SKC,0.00,VWS V13.01,2013-01-18 14:48:00,
2013-01-18 08:54:00,38.9,31.3,30.08,SSW,199,0.0,3.0,74,0.00,,SKC,0.00,VWS V13.01,2013-01-18 14:54:00,
2013-01-18 08:59:00,39.0,31.8,30.08,SW,232,0.0,0.0,75,0.00,,SKC,0.00,VWS V13.01,2013-01-18 14:59:00,
2013-01-18 09:04:00,39.2,31.6,30.08,SW,225,2.0,6.0,74,0.00,,SKC,0.00,VWS V13.01,2013-01-18 15:04:00,
2013-01-18 09:10:00,39.6,31.7,30.08,SW,224,3.0,8.0,73,0.00,,SKC,0.00,VWS V13.01,2013-01-18 15:10:00,
2013-01-18 09:15:00,39.9,32.0,30.08,WSW,237,6.0,8.0,73,0.00,,SKC,0.00,VWS V13.01,2013-01-18 15:15:00,
2013-01-18 09:20:00,40.3,32.0,30.09,SW,224,4.0,6.0,72,0.00,,SKC,0.00,VWS V13.01,2013-01-18 15:20:00,
2013-01-18 09:25:00,40.6,32.0,30.09,WSW,245,8.0,11.0,71,0.00,,SKC,0.00,VWS V13.01,2013-01-18 15:25:00,
2013-01-18 09:30:00,41.0,32.0,30.09,WNW,282,2.0,12.0,70,0.00,,SKC,0.00,VWS V13.01,2013-01-18 15:30:00,
2013-01-18 09:35:00,41.3,32.3,30.08,SE,124,0.0,4.0,70,0.00,,SKC,0.00,VWS V13.01,2013-01-18 15:35:00,
2013-01-18 09:40:00,41.5,32.1,30.08,WSW,239,8.0,12.0,69,0.00,,SKC,0.00,VWS V13.01,2013-01-18 15:40:00,
2013-01-18 09:46:00,41.7,32.3,30.08,SSW,203,3.0,10.0,69,0.00,,SKC,0.00,VWS V13.01,2013-01-18 15:46:00,
2013-01-18 09:51:00,41.8,32.4,30.08,SW,232,11.0,18.0,69,0.00,,SKC,0.00,VWS V13.01,2013-01-18 15:51:00,
2013-01-18 09:56:00,42.0,32.6,30.08,WSW,239,4.0,7.0,69,0.00,,SKC,0.00,VWS V13.01,2013-01-18 15:56:00,
2013-01-18 10:01:00,42.1,32.7,30.08,SW,232,4.0,12.0,69,0.00,,SKC,0.00,VWS V13.01,2013-01-18 16:01:00,
2013-01-18 10:07:00,42.5,32.7,30.08,SW,220,16.0,16.0,68,0.00,,SKC,0.00,VWS V13.01,2013-01-18 16:07:00,
2013-01-18 10:12:00,42.6,32.4,30.08,West,264,6.0,11.0,67,0.00,,SKC,0.00,VWS V13.01,2013-01-18 16:12:00,
2013-01-18 10:17:00,42.7,32.9,30.08,West,261,1.0,15.0,68,0.00,,SKC,0.00,VWS V13.01,2013-01-18 16:17:00,
2013-01-18 10:22:00,43.0,32.8,30.07,WSW,239,4.0,14.0,67,0.00,,SKC,0.00,VWS V13.01,2013-01-18 16:22:00,
2013-01-18 10:27:00,43.1,32.5,30.07,WSW,247,5.0,8.0,66,0.00,,SKC,0.00,VWS V13.01,2013-01-18 16:27:00,
2013-01-18 10:32:00,43.4,32.8,30.07,WSW,243,11.0,20.0,66,0.00,,SKC,0.00,VWS V13.01,2013-01-18 16:32:00,
2013-01-18 10:38:00,43.5,32.9,30.06,West,260,10.0,13.0,66,0.00,,SKC,0.00,VWS V13.01,2013-01-18 16:38:00,
2013-01-18 10:43:00,44.0,33.0,30.06,WSW,240,11.0,20.0,65,0.00,,SKC,0.00,VWS V13.01,2013-01-18 16:43:00,
2013-01-18 10:48:00,44.4,33.0,30.05,WSW,242,15.0,17.0,64,0.00,,SKC,0.00,VWS V13.01,2013-01-18 16:48:00,
2013-01-18 10:54:00,44.2,32.8,30.05,WSW,245,19.0,23.0,64,0.00,,SKC,0.00,VWS V13.01,2013-01-18 16:54:00,
2013-01-18 11:00:00,44.5,33.1,30.06,West,262,10.0,12.0,64,0.00,,SKC,0.00,VWS V13.01,2013-01-18 17:00:00,
2013-01-18 11:05:00,44.9,33.1,30.06,WSW,238,6.0,22.0,63,0.00,,SKC,0.00,VWS V13.01,2013-01-18 17:05:00,
2013-01-18 11:10:00,44.9,33.1,30.05,West,259,12.0,20.0,63,0.00,,SKC,0.00,VWS V13.01,2013-01-18 17:10:00,
2013-01-18 11:16:00,45.4,33.6,30.04,WSW,257,7.0,13.0,63,0.00,,SKC,0.00,VWS V13.01,2013-01-18 17:16:00,
2013-01-18 11:21:00,45.6,33.3,30.04,SSW,195,10.0,11.0,62,0.00,,SKC,0.00,VWS V13.01,2013-01-18 17:21:00,
2013-01-18 11:27:00,46.1,33.0,30.04,WSW,250,11.0,22.0,60,0.00,,SKC,0.00,VWS V13.01,2013-01-18 17:27:00,
2013-01-18 11:32:00,46.2,33.1,30.03,SW,233,6.0,11.0,60,0.00,,SKC,0.00,VWS V13.01,2013-01-18 17:32:00,
2013-01-18 11:37:00,46.3,32.8,30.03,WSW,244,14.0,17.0,59,0.00,,SKC,0.00,VWS V13.01,2013-01-18 17:37:00,
2013-01-18 11:42:00,46.7,33.6,30.02,SW,229,4.0,10.0,60,0.00,,SKC,0.00,VWS V13.01,2013-01-18 17:42:00,
2013-01-18 11:48:00,47.2,33.6,30.02,SSW,201,3.0,14.0,59,0.00,,SKC,0.00,VWS V13.01,2013-01-18 17:48:00,
2013-01-18 11:54:00,47.4,33.4,30.01,SSW,212,3.0,11.0,58,0.00,,SKC,0.00,VWS V13.01,2013-01-18 17:54:00,
2013-01-18 11:59:00,47.7,34.1,30.01,SW,230,6.0,6.0,59,0.00,,SKC,0.00,VWS V13.01,2013-01-18 17:59:00,
2013-01-18 12:04:00,48.2,34.1,30.01,WSW,243,3.0,11.0,58,0.00,,SKC,0.00,VWS V13.01,2013-01-18 18:04:00,
2013-01-18 12:09:00,48.5,34.0,30.01,WSW,243,13.0,15.0,57,0.00,,SKC,0.00,VWS V13.01,2013-01-18 18:09:00,
2013-01-18 12:15:00,48.2,33.7,30.01,WSW,254,4.0,13.0,57,0.00,,SKC,0.00,VWS V13.01,2013-01-18 18:15:00,
2013-01-18 12:20:00,49.0,34.0,30.01,West,268,6.0,12.0,56,0.00,,SKC,0.00,VWS V13.01,2013-01-18 18:20:00,
2013-01-18 12:26:00,49.7,34.2,30.01,West,280,5.0,8.0,55,0.00,,SKC,0.00,VWS V13.01,2013-01-18 18:26:00,
2013-01-18 12:31:00,49.3,33.4,30.00,West,264,8.0,13.0,54,0.00,,SKC,0.00,VWS V13.01,2013-01-18 18:31:00,
2013-01-18 12:36:00,49.4,33.9,30.00,WNW,287,13.0,16.0,55,0.00,,SKC,0.00,VWS V13.01,2013-01-18 18:36:00,
2013-01-18 12:41:00,49.4,33.9,29.99,West,262,1.0,23.0,55,0.00,,SKC,0.00,VWS V13.01,2013-01-18 18:41:00,
2013-01-18 12:46:00,49.8,34.3,29.99,West,264,5.0,7.0,55,0.00,,SKC,0.00,VWS V13.01,2013-01-18 18:46:00,
2013-01-18 12:51:00,49.9,33.9,29.99,WNW,282,11.0,14.0,54,0.00,,SKC,0.00,VWS V13.01,2013-01-18 18:51:00,
2013-01-18 12:56:00,50.0,34.0,29.98,West,277,9.0,9.0,54,0.00,,SKC,0.00,VWS V13.01,2013-01-18 18:56:00,
2013-01-18 13:01:00,50.1,34.1,29.98,SW,232,7.0,18.0,54,0.00,,SKC,0.00,VWS V13.01,2013-01-18 19:01:00,
2013-01-18 13:06:00,49.9,33.9,29.98,WSW,258,1.0,15.0,54,0.00,,SKC,0.00,VWS V13.01,2013-01-18 19:06:00,
2013-01-18 13:11:00,50.5,34.0,29.98,WSW,243,19.0,19.0,53,0.00,,SKC,0.00,VWS V13.01,2013-01-18 19:11:00,
2013-01-18 13:16:00,50.0,34.0,29.98,SSW,212,4.0,14.0,54,0.00,,SKC,0.00,VWS V13.01,2013-01-18 19:16:00,
2013-01-18 13:21:00,50.3,33.8,29.98,WSW,247,7.0,13.0,53,0.00,,SKC,0.00,VWS V13.01,2013-01-18 19:21:00,
2013-01-18 13:26:00,50.5,34.5,29.98,SW,226,7.0,7.0,54,0.00,,SKC,0.00,VWS V13.01,2013-01-18 19:26:00,
2013-01-18 13:31:00,50.6,34.1,29.98,WSW,244,6.0,10.0,53,0.00,,SKC,0.00,VWS V13.01,2013-01-18 19:31:00,
2013-01-18 13:36:00,50.5,34.0,29.97,WSW,240,3.0,11.0,53,0.00,,SKC,0.00,VWS V13.01,2013-01-18 19:36:00,
2013-01-18 13:42:00,50.8,34.3,29.97,West,262,7.0,20.0,53,0.00,,SKC,0.00,VWS V13.01,2013-01-18 19:42:00,
2013-01-18 13:47:00,50.9,33.9,29.97,WSW,247,12.0,17.0,52,0.00,,SKC,0.00,VWS V13.01,2013-01-18 19:47:00,
2013-01-18 13:52:00,51.4,34.4,29.98,West,270,4.0,9.0,52,0.00,,SKC,0.00,VWS V13.01,2013-01-18 19:52:00,
2013-01-18 13:57:00,51.7,34.2,29.97,SW,234,14.0,19.0,51,0.00,,SKC,0.00,VWS V13.01,2013-01-18 19:57:00,
2013-01-18 14:02:00,51.6,34.6,29.97,WSW,250,4.0,8.0,52,0.00,,SKC,0.00,VWS V13.01,2013-01-18 20:02:00,
2013-01-18 14:07:00,52.0,34.5,29.97,WNW,288,14.0,16.0,51,0.00,,SKC,0.00,VWS V13.01,2013-01-18 20:07:00,
2013-01-18 14:12:00,52.4,34.3,29.97,WSW,243,3.0,11.0,50,0.00,,SKC,0.00,VWS V13.01,2013-01-18 20:12:00,
2013-01-18 14:17:00,52.8,34.7,29.97,West,261,5.0,7.0,50,0.00,,SKC,0.00,VWS V13.01,2013-01-18 20:17:00,
2013-01-18 14:22:00,52.9,34.3,29.97,WSW,249,11.0,14.0,49,0.00,,SKC,0.00,VWS V13.01,2013-01-18 20:22:00,
2013-01-18 14:27:00,52.4,34.3,29.97,SW,222,11.0,15.0,50,0.00,,SKC,0.00,VWS V13.01,2013-01-18 20:27:00,
2013-01-18 14:32:00,52.1,34.0,29.97,SW,232,11.0,13.0,50,0.00,,SKC,0.00,VWS V13.01,2013-01-18 20:32:00,
2013-01-18 14:37:00,52.0,34.5,29.97,West,263,4.0,14.0,51,0.00,,SKC,0.00,VWS V13.01,2013-01-18 20:37:00,
2013-01-18 14:42:00,52.4,34.3,29.97,WSW,248,3.0,14.0,50,0.00,,SKC,0.00,VWS V13.01,2013-01-18 20:42:00,
2013-01-18 14:47:00,52.6,34.5,29.97,West,272,2.0,10.0,50,0.00,,SKC,0.00,VWS V13.01,2013-01-18 20:47:00,
2013-01-18 14:52:00,52.5,34.4,29.97,WSW,238,5.0,11.0,50,0.00,,SKC,0.00,VWS V13.01,2013-01-18 20:52:00,
2013-01-18 14:57:00,52.4,34.3,29.97,SW,229,3.0,15.0,50,0.00,,SKC,0.00,VWS V13.01,2013-01-18 20:57:00,
2013-01-18 15:02:00,52.4,33.8,29.96,SW,223,10.0,20.0,49,0.00,,SKC,0.00,VWS V13.01,2013-01-18 21:02:00,
2013-01-18 15:07:00,52.2,34.6,29.96,SW,218,3.0,19.0,51,0.00,,SKC,0.00,VWS V13.01,2013-01-18 21:07:00,
2013-01-18 15:13:00,52.5,34.9,29.96,WSW,237,3.0,7.0,51,0.00,,SKC,0.00,VWS V13.01,2013-01-18 21:13:00,
2013-01-18 15:18:00,53.2,35.1,29.96,West,267,7.0,7.0,50,0.00,,SKC,0.00,VWS V13.01,2013-01-18 21:18:00,
2013-01-18 15:23:00,53.1,35.0,29.96,SW,230,5.0,7.0,50,0.00,,SKC,0.00,VWS V13.01,2013-01-18 21:23:00,
2013-01-18 15:28:00,53.1,34.0,29.96,WSW,237,15.0,21.0,48,0.00,,SKC,0.00,VWS V13.01,2013-01-18 21:28:00,
2013-01-18 15:33:00,52.6,34.0,29.96,West,264,13.0,13.0,49,0.00,,SKC,0.00,VWS V13.01,2013-01-18 21:33:00,
2013-01-18 15:38:00,52.6,34.0,29.95,WSW,251,8.0,12.0,49,0.00,,SKC,0.00,VWS V13.01,2013-01-18 21:38:00,
2013-01-18 15:43:00,52.4,33.8,29.95,SW,232,8.0,14.0,49,0.00,,SKC,0.00,VWS V13.01,2013-01-18 21:43:00,
2013-01-18 15:48:00,52.3,33.7,29.95,SW,231,6.0,7.0,49,0.00,,SKC,0.00,VWS V13.01,2013-01-18 21:48:00,
2013-01-18 15:53:00,52.4,34.3,29.96,WNW,289,4.0,7.0,50,0.00,,SKC,0.00,VWS V13.01,2013-01-18 21:53:00,
2013-01-18 15:58:00,52.6,34.0,29.96,West,278,2.0,20.0,49,0.00,,SKC,0.00,VWS V13.01,2013-01-18 21:58:00,
2013-01-18 16:03:00,52.6,34.0,29.96,WSW,245,8.0,10.0,49,0.00,,SKC,0.00,VWS V13.01,2013-01-18 22:03:00,
2013-01-18 16:09:00,52.7,34.1,29.96,West,269,4.0,9.0,49,0.00,,SKC,0.00,VWS V13.01,2013-01-18 22:09:00,
2013-01-18 16:14:00,52.6,34.5,29.96,West,269,3.0,5.0,50,0.00,,SKC,0.00,VWS V13.01,2013-01-18 22:14:00,
2013-01-18 16:19:00,52.6,34.5,29.96,West,276,2.0,8.0,50,0.00,,SKC,0.00,VWS V13.01,2013-01-18 22:19:00,
2013-01-18 16:24:00,52.5,34.4,29.96,WNW,299,9.0,9.0,50,0.00,,SKC,0.00,VWS V13.01,2013-01-18 22:24:00,
2013-01-18 16:29:00,52.3,34.7,29.97,West,272,5.0,7.0,51,0.00,,SKC,0.00,VWS V13.01,2013-01-18 22:29:00,
2013-01-18 16:34:00,51.9,34.8,29.97,West,279,4.0,7.0,52,0.00,,SKC,0.00,VWS V13.01,2013-01-18 22:34:00,
2013-01-18 16:40:00,51.6,34.6,29.97,West,274,1.0,5.0,52,0.00,,SKC,0.00,VWS V13.01,2013-01-18 22:40:00,
2013-01-18 16:45:00,51.4,34.9,29.97,West,270,2.0,4.0,53,0.00,,SKC,0.00,VWS V13.01,2013-01-18 22:45:00,
2013-01-18 16:50:00,51.1,34.6,29.97,West,273,6.0,6.0,53,0.00,,SKC,0.00,VWS V13.01,2013-01-18 22:50:00,
2013-01-18 16:55:00,50.8,34.8,29.97,West,260,3.0,4.0,54,0.00,,SKC,0.00,VWS V13.01,2013-01-18 22:55:00,
2013-01-18 17:00:00,50.3,34.3,29.97,WSW,253,1.0,5.0,54,0.00,,SKC,0.00,VWS V13.01,2013-01-18 23:00:00,
2013-01-18 17:05:00,50.1,34.6,29.98,West,268,2.0,2.0,55,0.00,,SKC,0.00,VWS V13.01,2013-01-18 23:05:00,
2013-01-18 17:10:00,50.0,34.5,29.98,West,271,1.0,3.0,55,0.00,,SKC,0.00,VWS V13.01,2013-01-18 23:10:00,
2013-01-18 17:15:00,49.7,34.7,29.98,West,269,1.0,2.0,56,0.00,,SKC,0.00,VWS V13.01,2013-01-18 23:15:00,
2013-01-18 17:20:00,49.4,34.4,29.98,West,278,1.0,4.0,56,0.00,,SKC,0.00,VWS V13.01,2013-01-18 23:20:00,
2013-01-18 17:25:00,49.1,34.5,29.97,West,278,0.0,2.0,57,0.00,,SKC,0.00,VWS V13.01,2013-01-18 23:25:00,
2013-01-18 17:30:00,48.8,34.3,29.97,West,279,0.0,2.0,57,0.00,,SKC,0.00,VWS V13.01,2013-01-18 23:30:00,
2013-01-18 17:36:00,48.4,34.3,29.97,West,279,0.0,1.0,58,0.00,,SKC,0.00,VWS V13.01,2013-01-18 23:36:00,
2013-01-18 17:41:00,48.1,34.5,29.97,West,279,0.0,1.0,59,0.00,,SKC,0.00,VWS V13.01,2013-01-18 23:41:00,
2013-01-18 17:47:00,47.7,34.1,29.97,West,279,0.0,0.0,59,0.00,,SKC,0.00,VWS V13.01,2013-01-18 23:47:00,
2013-01-18 17:52:00,47.4,34.2,29.98,West,279,0.0,0.0,60,0.00,,SKC,0.00,VWS V13.01,2013-01-18 23:52:00,
2013-01-18 17:57:00,47.1,34.4,29.98,West,279,0.0,0.0,61,0.00,,SKC,0.00,VWS V13.01,2013-01-18 23:57:00,
2013-01-18 18:02:00,46.9,34.2,29.98,West,279,0.0,0.0,61,0.00,,SKC,0.00,VWS V13.01,2013-01-19 00:02:00,
2013-01-18 18:07:00,46.6,33.9,29.98,West,279,0.0,0.0,61,0.00,,SKC,0.00,VWS V13.01,2013-01-19 00:07:00,
2013-01-18 18:12:00,46.1,33.8,29.98,West,279,0.0,0.0,62,0.00,,SKC,0.00,VWS V13.01,2013-01-19 00:12:00,
2013-01-18 18:17:00,46.0,34.1,29.98,West,279,0.0,0.0,63,0.00,,SKC,0.00,VWS V13.01,2013-01-19 00:17:00,
2013-01-18 18:22:00,46.1,34.2,29.98,West,279,0.0,1.0,63,0.00,,SKC,0.00,VWS V13.01,2013-01-19 00:22:00,
2013-01-18 18:27:00,46.0,34.1,29.98,West,279,0.0,1.0,63,0.00,,SKC,0.00,VWS V13.01,2013-01-19 00:27:00,
2013-01-18 18:32:00,45.7,33.8,29.98,West,279,0.0,1.0,63,0.00,,SKC,0.00,VWS V13.01,2013-01-19 00:32:00,
2013-01-18 18:37:00,45.3,33.5,29.98,West,279,0.0,1.0,63,0.00,,SKC,0.00,VWS V13.01,2013-01-19 00:37:00,
2013-01-18 18:42:00,44.7,33.3,29.97,West,279,0.0,0.0,64,0.00,,SKC,0.00,VWS V13.01,2013-01-19 00:42:00,
2013-01-18 18:47:00,44.1,33.1,29.98,West,279,0.0,0.0,65,0.00,,SKC,0.00,VWS V13.01,2013-01-19 00:47:00,
2013-01-18 18:52:00,43.5,32.9,29.98,West,279,0.0,0.0,66,0.00,,SKC,0.00,VWS V13.01,2013-01-19 00:52:00,
2013-01-18 18:57:00,43.1,32.9,29.98,West,279,0.0,0.0,67,0.00,,SKC,0.00,VWS V13.01,2013-01-19 00:57:00,
2013-01-18 19:02:00,42.9,32.7,29.98,West,279,0.0,0.0,67,0.00,,SKC,0.00,VWS V13.01,2013-01-19 01:02:00,
2013-01-18 19:07:00,42.5,32.7,29.98,West,279,0.0,0.0,68,0.00,,SKC,0.00,VWS V13.01,2013-01-19 01:07:00,
2013-01-18 19:12:00,42.2,32.8,29.99,West,279,0.0,0.0,69,0.00,,SKC,0.00,VWS V13.01,2013-01-19 01:12:00,
2013-01-18 19:18:00,42.0,32.9,29.99,West,279,0.0,0.0,70,0.00,,SKC,0.00,VWS V13.01,2013-01-19 01:18:00,
2013-01-18 19:23:00,42.0,32.6,29.99,West,279,0.0,0.0,69,0.00,,SKC,0.00,VWS V13.01,2013-01-19 01:23:00,
2013-01-18 19:28:00,41.9,32.5,29.99,West,279,0.0,0.0,69,0.00,,SKC,0.00,VWS V13.01,2013-01-19 01:28:00,
2013-01-18 19:34:00,41.8,32.4,29.98,West,279,0.0,0.0,69,0.00,,SKC,0.00,VWS V13.01,2013-01-19 01:34:00,
2013-01-18 19:39:00,41.7,32.7,29.98,West,279,0.0,0.0,70,0.00,,SKC,0.00,VWS V13.01,2013-01-19 01:39:00,
2013-01-18 19:44:00,41.5,32.5,29.98,West,279,0.0,0.0,70,0.00,,SKC,0.00,VWS V13.01,2013-01-19 01:44:00,
2013-01-18 19:49:00,41.2,32.2,29.98,West,279,0.0,0.0,70,0.00,,SKC,0.00,VWS V13.01,2013-01-19 01:49:00,
2013-01-18 19:54:00,41.0,32.3,29.98,West,279,0.0,0.0,71,0.00,,SKC,0.00,VWS V13.01,2013-01-19 01:54:00,
2013-01-18 19:59:00,40.8,32.1,29.98,West,279,0.0,0.0,71,0.00,,SKC,0.00,VWS V13.01,2013-01-19 01:59:00,
2013-01-18 20:04:00,40.6,32.0,29.98,West,279,0.0,0.0,71,0.00,,SKC,0.00,VWS V13.01,2013-01-19 02:04:00,
2013-01-18 20:09:00,40.3,32.0,29.98,West,279,0.0,0.0,72,0.00,,SKC,0.00,VWS V13.01,2013-01-19 02:09:00,
2013-01-18 20:14:00,40.1,31.8,29.97,West,279,0.0,0.0,72,0.00,,SKC,0.00,VWS V13.01,2013-01-19 02:14:00,
2013-01-18 20:19:00,40.0,31.7,29.97,West,279,0.0,0.0,72,0.00,,SKC,0.00,VWS V13.01,2013-01-19 02:19:00,
2013-01-18 20:24:00,39.8,31.5,29.97,West,279,0.0,0.0,72,0.00,,SKC,0.00,VWS V13.01,2013-01-19 02:24:00,
2013-01-18 20:29:00,39.6,31.7,29.97,West,279,0.0,0.0,73,0.00,,SKC,0.00,VWS V13.01,2013-01-19 02:29:00,
2013-01-18 20:35:00,39.3,31.4,29.97,West,279,0.0,0.0,73,0.00,,SKC,0.00,VWS V13.01,2013-01-19 02:35:00,
2013-01-18 20:40:00,39.1,31.2,29.97,West,279,0.0,0.0,73,0.00,,SKC,0.00,VWS V13.01,2013-01-19 02:40:00,
2013-01-18 20:45:00,38.9,31.0,29.96,West,279,0.0,0.0,73,0.00,,SKC,0.00,VWS V13.01,2013-01-19 02:45:00,
2013-01-18 20:51:00,38.8,31.2,29.96,West,279,0.0,0.0,74,0.00,,SKC,0.00,VWS V13.01,2013-01-19 02:51:00,
2013-01-18 20:56:00,38.6,31.4,29.96,West,279,0.0,0.0,75,0.00,,SKC,0.00,VWS V13.01,2013-01-19 02:56:00,
2013-01-18 21:01:00,38.5,31.3,29.96,West,279,0.0,0.0,75,0.00,,SKC,0.00,VWS V13.01,2013-01-19 03:01:00,
2013-01-18 21:07:00,38.3,31.1,29.96,West,279,0.0,0.0,75,0.00,,SKC,0.00,VWS V13.01,2013-01-19 03:07:00,
2013-01-18 21:12:00,38.2,31.3,29.95,West,279,0.0,0.0,76,0.00,,SKC,0.00,VWS V13.01,2013-01-19 03:12:00,
2013-01-18 21:17:00,38.1,31.2,29.95,West,279,0.0,0.0,76,0.00,,SKC,0.00,VWS V13.01,2013-01-19 03:17:00,
2013-01-18 21:22:00,38.0,31.1,29.95,West,279,0.0,0.0,76,0.00,,SKC,0.00,VWS V13.01,2013-01-19 03:22:00,
2013-01-18 21:27:00,37.9,31.4,29.95,West,279,0.0,0.0,77,0.00,,SKC,0.00,VWS V13.01,2013-01-19 03:27:00,
2013-01-18 21:32:00,37.7,31.1,29.95,West,279,0.0,0.0,77,0.00,,SKC,0.00,VWS V13.01,2013-01-19 03:32:00,
2013-01-18 21:37:00,37.7,31.5,29.95,West,279,0.0,0.0,78,0.00,,SKC,0.00,VWS V13.01,2013-01-19 03:37:00,
2013-01-18 21:42:00,37.9,31.4,29.95,West,279,0.0,0.0,77,0.00,,SKC,0.00,VWS V13.01,2013-01-19 03:42:00,
2013-01-18 21:47:00,38.0,31.4,29.95,West,279,0.0,0.0,77,0.00,,SKC,0.00,VWS V13.01,2013-01-19 03:47:00,
2013-01-18 21:52:00,38.2,31.6,29.95,West,279,0.0,0.0,77,0.00,,SKC,0.00,VWS V13.01,2013-01-19 03:52:00,
2013-01-18 21:57:00,38.4,31.8,29.95,West,279,0.0,0.0,77,0.00,,SKC,0.00,VWS V13.01,2013-01-19 03:57:00,
2013-01-18 22:02:00,38.5,31.6,29.95,West,279,0.0,0.0,76,0.00,,SKC,0.00,VWS V13.01,2013-01-19 04:02:00,
2013-01-18 22:07:00,38.6,31.7,29.94,West,279,0.0,0.0,76,0.00,,SKC,0.00,VWS V13.01,2013-01-19 04:07:00,
2013-01-18 22:12:00,38.5,31.6,29.94,West,279,0.0,0.0,76,0.00,,SKC,0.00,VWS V13.01,2013-01-19 04:12:00,
2013-01-18 22:18:00,38.3,31.1,29.94,West,279,0.0,0.0,75,0.00,,SKC,0.00,VWS V13.01,2013-01-19 04:18:00,
2013-01-18 22:23:00,38.2,31.3,29.94,West,279,0.0,0.0,76,0.00,,SKC,0.00,VWS V13.01,2013-01-19 04:23:00,
2013-01-18 22:29:00,38.0,31.1,29.94,West,279,0.0,0.0,76,0.00,,SKC,0.00,VWS V13.01,2013-01-19 04:29:00,
2013-01-18 22:34:00,37.8,30.9,29.94,West,279,0.0,0.0,76,0.00,,SKC,0.00,VWS V13.01,2013-01-19 04:34:00,
2013-01-18 22:39:00,37.6,30.7,29.94,West,279,0.0,0.0,76,0.00,,SKC,0.00,VWS V13.01,2013-01-19 04:39:00,
2013-01-18 22:44:00,37.4,30.5,29.93,West,279,0.0,0.0,76,0.00,,SKC,0.00,VWS V13.01,2013-01-19 04:44:00,
2013-01-18 22:49:00,37.2,30.4,29.93,West,279,0.0,0.0,76,0.00,,SKC,0.00,VWS V13.01,2013-01-19 04:49:00,
2013-01-18 22:54:00,37.0,30.5,29.93,West,279,0.0,0.0,77,0.00,,SKC,0.00,VWS V13.01,2013-01-19 04:54:00,
2013-01-18 22:59:00,36.8,30.0,29.93,West,279,0.0,0.0,76,0.00,,SKC,0.00,VWS V13.01,2013-01-19 04:59:00,
2013-01-18 23:00:00,36.7,29.9,29.93,West,279,0.0,0.0,76,0.00,,SKC,0.00,VWS V13.01,2013-01-19 05:00:00,
2013-01-18 23:02:00,36.6,29.8,29.93,West,279,0.0,0.0,76,0.00,,SKC,0.00,VWS V13.01,2013-01-19 05:02:00,
2013-01-18 23:04:00,36.4,29.9,29.93,West,279,0.0,0.0,77,0.00,,SKC,0.00,VWS V13.01,2013-01-19 05:04:00,
2013-01-18 23:09:00,36.1,29.6,29.93,West,279,0.0,0.0,77,0.00,,SKC,0.00,VWS V13.01,2013-01-19 05:09:00,
2013-01-18 23:14:00,35.7,29.2,29.93,West,279,0.0,0.0,77,0.00,,SKC,0.00,VWS V13.01,2013-01-19 05:14:00,
2013-01-18 23:19:00,35.5,29.3,29.93,West,279,0.0,0.0,78,0.00,,SKC,0.00,VWS V13.01,2013-01-19 05:19:00,
2013-01-18 23:24:00,35.4,29.2,29.93,West,279,0.0,0.0,78,0.00,,SKC,0.00,VWS V13.01,2013-01-19 05:24:00,
2013-01-18 23:29:00,35.3,29.5,29.93,West,279,0.0,0.0,79,0.00,,SKC,0.00,VWS V13.01,2013-01-19 05:29:00,
2013-01-18 23:34:00,35.2,29.4,29.92,West,279,0.0,0.0,79,0.00,,SKC,0.00,VWS V13.01,2013-01-19 05:34:00,
2013-01-18 23:39:00,35.2,29.4,29.92,West,279,0.0,0.0,79,0.00,,SKC,0.00,VWS V13.01,2013-01-19 05:39:00,
2013-01-18 23:45:00,35.2,29.4,29.92,West,279,0.0,0.0,79,0.00,,SKC,0.00,VWS V13.01,2013-01-19 05:45:00,
2013-01-18 23:51:00,35.4,29.5,29.92,West,279,0.0,0.0,79,0.00,,SKC,0.00,VWS V13.01,2013-01-19 05:51:00,
2013-01-18 23:56:00,35.4,29.5,29.92,West,279,0.0,0.0,79,0.00,,SKC,0.00,VWS V13.01,2013-01-19 05:56:00,